createdAt,value
2023-05-06T00:00:30.600Z,60.74
2023-05-06T00:01:30.577Z,64.22
2023-05-06T00:02:30.606Z,61.98
2023-05-06T00:03:30.737Z,62.92
2023-05-06T00:04:30.610Z,62.52
2023-05-06T00:05:30.551Z,53.87
2023-05-06T00:06:30.538Z,64.40
2023-05-06T00:07:30.516Z,53.24
2023-05-06T00:08:30.604Z,61.12
2023-05-06T00:09:30.566Z,60.77
2023-05-06T00:10:30.515Z,60.03
2023-05-06T00:11:30.461Z,69.74
2023-05-06T00:12:30.463Z,60.89
2023-05-06T00:13:30.523Z,52.38
2023-05-06T00:14:30.455Z,62.30
2023-05-06T00:15:32.117Z,68.30
2023-05-06T00:16:31.495Z,61.64
2023-05-06T00:17:30.458Z,58.86
2023-05-06T00:18:30.539Z,56.49
2023-05-06T00:19:30.419Z,56.14
2023-05-06T00:20:30.430Z,65.23
2023-05-06T00:21:30.399Z,68.25
2023-05-06T00:22:30.451Z,68.97
2023-05-06T00:23:30.520Z,58.06
2023-05-06T00:24:30.425Z,57.95
2023-05-06T00:25:30.475Z,63.72
2023-05-06T00:26:30.411Z,69.66
2023-05-06T00:27:30.380Z,64.27
2023-05-06T00:28:30.449Z,63.23
2023-05-06T00:29:30.421Z,60.54
2023-05-06T00:30:30.361Z,68.09
2023-05-06T00:31:30.406Z,53.97
2023-05-06T00:32:30.397Z,67.83
2023-05-06T00:33:30.332Z,57.74
2023-05-06T00:34:30.392Z,64.48
2023-05-06T00:35:30.314Z,52.73
2023-05-06T00:36:30.335Z,57.89
2023-05-06T00:37:30.311Z,65.19
2023-05-06T00:38:30.308Z,58.97
2023-05-06T00:39:30.326Z,56.86
2023-05-06T00:40:30.284Z,52.81
2023-05-06T00:41:30.278Z,57.18
2023-05-06T00:42:30.272Z,59.39
2023-05-06T00:43:30.263Z,53.25
2023-05-06T00:44:30.294Z,71.12
2023-05-06T00:45:30.271Z,69.53
2023-05-06T00:46:30.255Z,67.50
2023-05-06T00:47:31.602Z,58.37
2023-05-06T00:48:30.251Z,59.15
2023-05-06T00:49:30.239Z,57.77
2023-05-06T00:50:30.254Z,59.77
2023-05-06T00:51:30.228Z,53.92
2023-05-06T00:52:30.237Z,63.05
2023-05-06T00:53:30.263Z,56.02
2023-05-06T00:54:30.185Z,54.32
2023-05-06T00:55:30.179Z,62.08
2023-05-06T00:56:30.267Z,63.49
2023-05-06T00:57:30.316Z,58.54
2023-05-06T00:58:30.163Z,65.28
2023-05-06T00:59:30.150Z,60.80
2023-05-06T01:00:30.147Z,56.67
2023-05-06T01:01:30.182Z,58.11
2023-05-06T01:02:39.882Z,58.88
2023-05-06T01:03:32.270Z,52.54
2023-05-06T01:04:30.139Z,52.53
2023-05-06T01:05:30.144Z,59.93
2023-05-06T01:06:30.129Z,64.87
2023-05-06T01:07:30.108Z,52.95
2023-05-06T01:08:30.091Z,60.72
2023-05-06T01:09:30.148Z,58.21
2023-05-06T01:10:30.081Z,59.30
2023-05-06T01:11:30.112Z,65.09
2023-05-06T01:12:30.125Z,53.05
2023-05-06T01:13:30.203Z,52.72
2023-05-06T01:14:30.105Z,60.57
2023-05-06T01:15:30.084Z,58.57
2023-05-06T01:16:30.124Z,54.08
2023-05-06T01:17:30.063Z,53.01
2023-05-06T01:18:30.043Z,53.40
2023-05-06T01:19:30.012Z,67.15
2023-05-06T01:20:30.061Z,57.22
2023-05-06T01:21:30.000Z,55.05
2023-05-06T01:22:29.990Z,63.58
2023-05-06T01:23:29.990Z,53.62
2023-05-06T01:24:30.003Z,53.20
2023-05-06T01:25:30.005Z,57.24
2023-05-06T01:26:29.956Z,64.19
2023-05-06T01:27:29.961Z,62.19
2023-05-06T01:28:29.981Z,56.56
2023-05-06T01:29:30.023Z,62.57
2023-05-06T01:30:29.958Z,58.39
2023-05-06T01:31:29.970Z,67.46
2023-05-06T01:32:29.945Z,59.16
2023-05-06T01:33:29.943Z,64.63
2023-05-06T01:34:29.914Z,60.31
2023-05-06T01:35:29.953Z,56.53
2023-05-06T01:36:30.935Z,52.58
2023-05-06T01:37:29.902Z,58.58
2023-05-06T01:38:29.893Z,62.19
2023-05-06T01:39:29.881Z,57.99
2023-05-06T01:40:29.863Z,57.82
2023-05-06T01:41:29.861Z,64.90
2023-05-06T01:42:29.883Z,59.43
2023-05-06T01:43:29.846Z,61.27
2023-05-06T01:44:29.857Z,56.90
2023-05-06T01:45:29.854Z,53.30
2023-05-06T01:46:29.888Z,52.53
2023-05-06T01:47:29.853Z,61.42
2023-05-06T01:48:29.841Z,64.62
2023-05-06T01:49:29.841Z,57.60
2023-05-06T01:50:29.816Z,52.68
2023-05-06T01:51:29.814Z,52.41
2023-05-06T01:52:29.789Z,60.87
2023-05-06T01:53:29.879Z,69.70
2023-05-06T01:54:29.778Z,56.68
2023-05-06T01:55:29.768Z,52.09
2023-05-06T01:56:29.759Z,52.15
2023-05-06T01:57:29.756Z,52.25
2023-05-06T01:58:29.780Z,52.31
2023-05-06T01:59:29.778Z,52.20
2023-05-06T02:00:29.747Z,55.75
2023-05-06T02:01:29.847Z,57.92
2023-05-06T02:02:29.804Z,58.52
2023-05-06T02:03:29.824Z,52.36
2023-05-06T02:04:29.732Z,52.21
2023-05-06T02:05:29.681Z,56.37
2023-05-06T02:06:29.733Z,55.38
2023-05-06T02:07:30.597Z,63.96
2023-05-06T02:08:29.676Z,63.72
2023-05-06T02:09:29.724Z,57.02
2023-05-06T02:10:29.691Z,52.66
2023-05-06T02:11:29.687Z,56.02
2023-05-06T02:12:29.635Z,59.81
2023-05-06T02:13:29.656Z,62.09
2023-05-06T02:14:29.672Z,52.20
2023-05-06T02:15:29.655Z,52.67
2023-05-06T02:16:29.637Z,58.29
2023-05-06T02:17:29.794Z,52.29
2023-05-06T02:18:29.616Z,52.36
2023-05-06T02:19:29.598Z,57.63
2023-05-06T02:20:29.619Z,59.57
2023-05-06T02:21:29.636Z,52.29
2023-05-06T02:22:29.584Z,52.27
2023-05-06T02:23:29.577Z,63.14
2023-05-06T02:24:29.625Z,57.70
2023-05-06T02:25:29.598Z,58.59
2023-05-06T02:26:29.560Z,59.76
2023-05-06T02:27:29.568Z,53.92
2023-05-06T02:28:29.561Z,52.31
2023-05-06T02:29:30.570Z,62.53
2023-05-06T02:30:29.527Z,53.60
2023-05-06T02:31:29.610Z,61.67
2023-05-06T02:32:29.604Z,53.61
2023-05-06T02:33:29.618Z,53.21
2023-05-06T02:34:29.513Z,62.61
2023-05-06T02:35:29.527Z,58.68
2023-05-06T02:36:29.489Z,54.66
2023-05-06T02:37:29.506Z,61.38
2023-05-06T02:38:29.474Z,63.65
2023-05-06T02:39:29.474Z,59.89
2023-05-06T02:40:29.453Z,61.65
2023-05-06T02:41:29.476Z,52.74
2023-05-06T02:42:30.479Z,59.40
2023-05-06T02:43:29.493Z,66.80
2023-05-06T02:44:29.425Z,67.08
2023-05-06T02:45:29.456Z,61.00
2023-05-06T02:46:29.421Z,64.49
2023-05-06T02:47:29.474Z,61.57
2023-05-06T02:48:29.425Z,60.65
2023-05-06T02:49:29.471Z,57.42
2023-05-06T02:50:29.374Z,54.42
2023-05-06T02:51:29.404Z,60.71
2023-05-06T02:52:29.398Z,61.27
2023-05-06T02:53:29.595Z,58.70
2023-05-06T02:54:29.439Z,60.20
2023-05-06T02:55:29.351Z,58.68
2023-05-06T02:56:29.423Z,63.34
2023-05-06T02:57:29.501Z,55.56
2023-05-06T02:58:29.369Z,54.99
2023-05-06T02:59:29.328Z,60.89
2023-05-06T03:00:29.355Z,62.93
2023-05-06T03:01:29.423Z,58.95
2023-05-06T03:02:29.398Z,56.75
2023-05-06T03:03:29.311Z,60.46
2023-05-06T03:04:29.335Z,60.99
2023-05-06T03:05:29.281Z,65.00
2023-05-06T03:06:29.288Z,56.42
2023-05-06T03:07:29.294Z,64.74
2023-05-06T03:08:29.283Z,61.02
2023-05-06T03:09:29.287Z,60.25
2023-05-06T03:10:29.252Z,62.21
2023-05-06T03:11:29.238Z,59.17
2023-05-06T03:12:29.276Z,70.94
2023-05-06T03:13:29.231Z,60.82
2023-05-06T03:14:29.247Z,61.52
2023-05-06T03:15:29.256Z,64.34
2023-05-06T03:16:29.256Z,58.61
2023-05-06T03:17:29.206Z,57.24
2023-05-06T03:18:29.412Z,58.76
2023-05-06T03:19:29.170Z,54.76
2023-05-06T03:20:29.153Z,58.56
2023-05-06T03:21:29.249Z,60.02
2023-05-06T03:22:29.189Z,65.59
2023-05-06T03:23:29.204Z,59.97
2023-05-06T03:24:30.164Z,58.37
2023-05-06T03:25:29.146Z,65.85
2023-05-06T03:26:29.120Z,60.87
2023-05-06T03:27:29.125Z,64.05
2023-05-06T03:28:29.148Z,62.63
2023-05-06T03:29:29.148Z,61.99
2023-05-06T03:30:29.088Z,63.56
2023-05-06T03:31:30.194Z,61.09
2023-05-06T03:32:29.103Z,62.66
2023-05-06T03:33:29.112Z,55.62
2023-05-06T03:34:29.129Z,67.40
2023-05-06T03:35:29.079Z,60.38
2023-05-06T03:36:29.050Z,56.94
2023-05-06T03:37:29.065Z,69.68
2023-05-06T03:38:29.032Z,59.63
2023-05-06T03:39:30.066Z,54.96
2023-05-06T03:40:29.038Z,64.58
2023-05-06T03:41:29.021Z,59.20
2023-05-06T03:42:29.090Z,64.27
2023-05-06T03:43:29.036Z,58.41
2023-05-06T03:44:29.066Z,60.03
2023-05-06T03:45:29.078Z,63.08
2023-05-06T03:46:29.014Z,60.88
2023-05-06T03:47:29.012Z,60.42
2023-05-06T03:48:28.985Z,59.24
2023-05-06T03:49:28.964Z,70.85
2023-05-06T03:50:29.608Z,60.86
2023-05-06T03:51:29.025Z,65.18
2023-05-06T03:52:28.947Z,62.43
2023-05-06T03:53:29.141Z,64.11
2023-05-06T03:54:28.952Z,54.35
2023-05-06T03:55:28.928Z,66.17
2023-05-06T03:56:28.899Z,60.55
2023-05-06T03:57:28.929Z,65.92
2023-05-06T03:58:28.914Z,63.99
2023-05-06T03:59:28.938Z,65.55
2023-05-06T04:00:28.888Z,57.76
2023-05-06T04:01:28.890Z,64.84
2023-05-06T04:02:29.050Z,53.88
2023-05-06T04:03:29.003Z,61.62
2023-05-06T04:04:28.864Z,60.64
2023-05-06T04:05:28.881Z,63.42
2023-05-06T04:06:28.895Z,54.84
2023-05-06T04:07:28.891Z,63.13
2023-05-06T04:08:29.609Z,56.88
2023-05-06T04:09:28.906Z,60.03
2023-05-06T04:10:28.819Z,61.95
2023-05-06T04:11:29.788Z,64.18
2023-05-06T04:12:28.805Z,59.33
2023-05-06T04:13:28.794Z,58.54
2023-05-06T04:14:28.798Z,62.71
2023-05-06T04:15:28.810Z,65.36
2023-05-06T04:16:28.827Z,64.91
2023-05-06T04:17:28.828Z,58.45
2023-05-06T04:18:28.757Z,68.14
2023-05-06T04:19:28.773Z,70.18
2023-05-06T04:20:28.869Z,69.46
2023-05-06T04:21:28.756Z,64.34
2023-05-06T04:22:28.739Z,70.85
2023-05-06T04:23:28.779Z,67.29
2023-05-06T04:24:28.754Z,65.11
2023-05-06T04:25:28.785Z,63.47
2023-05-06T04:26:28.706Z,67.29
2023-05-06T04:27:28.745Z,65.97
2023-05-06T04:28:28.715Z,64.66
2023-05-06T04:29:28.701Z,70.09
2023-05-06T04:30:28.680Z,61.45
2023-05-06T04:31:28.714Z,69.28
2023-05-06T04:32:28.737Z,71.37
2023-05-06T04:33:28.684Z,62.31
2023-05-06T04:34:28.691Z,61.19
2023-05-06T04:35:28.659Z,61.52
2023-05-06T04:36:28.691Z,70.66
2023-05-06T04:37:28.672Z,60.83
2023-05-06T04:38:28.645Z,68.32
2023-05-06T04:39:28.629Z,68.33
2023-05-06T04:40:28.625Z,67.23
2023-05-06T04:41:28.689Z,63.62
2023-05-06T04:42:28.617Z,67.20
2023-05-06T04:43:28.609Z,74.65
2023-05-06T04:44:28.584Z,65.70
2023-05-06T04:45:28.664Z,69.92
2023-05-06T04:46:28.606Z,66.88
2023-05-06T04:47:28.588Z,70.76
2023-05-06T04:48:28.546Z,68.06
2023-05-06T04:49:28.574Z,71.33
2023-05-06T04:50:28.562Z,71.37
2023-05-06T04:51:28.571Z,65.50
2023-05-06T04:52:28.518Z,65.46
2023-05-06T04:53:29.525Z,60.39
2023-05-06T04:54:28.557Z,64.49
2023-05-06T04:55:28.521Z,69.37
2023-05-06T04:56:28.521Z,68.24
2023-05-06T04:57:28.580Z,68.44
2023-05-06T04:58:28.478Z,64.99
2023-05-06T04:59:28.543Z,69.31
2023-05-06T05:00:28.491Z,65.94
2023-05-06T05:01:28.581Z,69.23
2023-05-06T05:02:28.633Z,63.23
2023-05-06T05:03:28.645Z,57.90
2023-05-06T05:04:28.515Z,68.35
2023-05-06T05:05:28.478Z,69.96
2023-05-06T05:06:28.481Z,71.92
2023-05-06T05:07:28.475Z,66.36
2023-05-06T05:08:28.443Z,72.52
2023-05-06T05:09:28.430Z,66.75
2023-05-06T05:10:28.412Z,63.78
2023-05-06T05:11:28.457Z,63.78
2023-05-06T05:12:28.407Z,67.02
2023-05-06T05:13:28.480Z,62.09
2023-05-06T05:14:28.437Z,65.72
2023-05-06T05:15:28.373Z,65.86
2023-05-06T05:16:28.502Z,71.26
2023-05-06T05:17:28.439Z,74.16
2023-05-06T05:18:28.393Z,68.12
2023-05-06T05:19:28.391Z,67.01
2023-05-06T05:20:28.358Z,60.43
2023-05-06T05:21:28.351Z,61.75
2023-05-06T05:22:28.366Z,65.71
2023-05-06T05:23:28.346Z,70.60
2023-05-06T05:24:28.328Z,66.26
2023-05-06T05:25:28.300Z,70.72
2023-05-06T05:26:28.336Z,61.21
2023-05-06T05:27:28.304Z,64.07
2023-05-06T05:28:28.319Z,67.72
2023-05-06T05:29:28.376Z,69.10
2023-05-06T05:30:28.303Z,67.39
2023-05-06T05:31:28.313Z,65.68
2023-05-06T05:32:28.336Z,69.13
2023-05-06T05:33:28.326Z,69.91
2023-05-06T05:34:28.253Z,68.36
2023-05-06T05:35:28.273Z,70.51
2023-05-06T05:36:28.282Z,67.03
2023-05-06T05:37:28.270Z,71.91
2023-05-06T05:38:28.273Z,69.67
2023-05-06T05:39:28.220Z,68.16
2023-05-06T05:40:28.218Z,68.90
2023-05-06T05:41:28.221Z,66.89
2023-05-06T05:42:28.213Z,68.72
2023-05-06T05:43:28.204Z,73.58
2023-05-06T05:44:28.193Z,69.87
2023-05-06T05:45:29.256Z,66.63
2023-05-06T05:46:28.207Z,69.04
2023-05-06T05:47:28.203Z,70.01
2023-05-06T05:48:28.175Z,72.69
2023-05-06T05:49:28.162Z,67.09
2023-05-06T05:50:28.239Z,68.28
2023-05-06T05:51:28.167Z,61.47
2023-05-06T05:52:28.180Z,70.45
2023-05-06T05:53:28.152Z,69.13
2023-05-06T05:54:28.206Z,69.88
2023-05-06T05:55:28.174Z,69.96
2023-05-06T05:56:28.116Z,62.21
2023-05-06T05:57:28.168Z,72.71
2023-05-06T05:58:28.104Z,69.45
2023-05-06T05:59:28.121Z,72.90
2023-05-06T06:00:28.093Z,69.28
2023-05-06T06:01:28.229Z,66.24
2023-05-06T06:02:28.220Z,68.31
2023-05-06T06:03:28.162Z,69.36
2023-05-06T06:04:28.134Z,67.83
2023-05-06T06:05:28.148Z,70.43
2023-05-06T06:06:28.037Z,69.01
2023-05-06T06:07:28.022Z,63.37
2023-05-06T06:08:28.050Z,69.45
2023-05-06T06:09:28.073Z,73.16
2023-05-06T06:10:28.046Z,66.27
2023-05-06T06:11:28.022Z,64.45
2023-05-06T06:12:28.078Z,67.95
2023-05-06T06:13:28.760Z,66.62
2023-05-06T06:14:29.021Z,67.12
2023-05-06T06:15:28.006Z,71.26
2023-05-06T06:16:27.997Z,72.83
2023-05-06T06:17:28.223Z,71.11
2023-05-06T06:18:27.989Z,71.34
2023-05-06T06:19:27.968Z,70.93
2023-05-06T06:20:28.019Z,63.65
2023-05-06T06:21:27.958Z,73.96
2023-05-06T06:22:27.962Z,73.03
2023-05-06T06:23:27.917Z,68.53
2023-05-06T06:24:27.949Z,72.08
2023-05-06T06:25:27.951Z,71.56
2023-05-06T06:26:27.912Z,71.61
2023-05-06T06:27:27.936Z,71.06
2023-05-06T06:28:27.889Z,71.81
2023-05-06T06:29:27.889Z,69.95
2023-05-06T06:30:27.881Z,69.86
2023-05-06T06:31:27.919Z,68.43
2023-05-06T06:32:27.915Z,68.80
2023-05-06T06:33:27.846Z,70.42
2023-05-06T06:34:27.892Z,70.71
2023-05-06T06:35:27.838Z,70.88
2023-05-06T06:36:27.871Z,64.82
2023-05-06T06:37:27.833Z,70.75
2023-05-06T06:38:27.875Z,73.54
2023-05-06T06:39:27.861Z,68.87
2023-05-06T06:40:27.857Z,68.91
2023-05-06T06:41:27.812Z,71.09
2023-05-06T06:42:27.814Z,70.29
2023-05-06T06:43:27.854Z,73.15
2023-05-06T06:44:27.796Z,71.51
2023-05-06T06:45:27.842Z,71.12
2023-05-06T06:46:27.790Z,66.56
2023-05-06T06:47:27.782Z,73.91
2023-05-06T06:48:27.789Z,70.07
2023-05-06T06:49:27.807Z,71.51
2023-05-06T06:50:27.760Z,68.66
2023-05-06T06:51:27.802Z,71.90
2023-05-06T06:52:27.744Z,74.80
2023-05-06T06:53:27.734Z,73.52
2023-05-06T06:54:27.785Z,70.21
2023-05-06T06:55:27.727Z,73.45
2023-05-06T06:56:27.733Z,67.94
2023-05-06T06:57:27.716Z,69.27
2023-05-06T06:58:27.797Z,74.34
2023-05-06T06:59:27.696Z,70.70
2023-05-06T07:00:27.738Z,71.80
2023-05-06T07:01:27.757Z,65.05
2023-05-06T07:02:27.743Z,68.51
2023-05-06T07:03:27.817Z,69.32
2023-05-06T07:04:27.795Z,70.78
2023-05-06T07:05:27.754Z,68.24
2023-05-06T07:06:27.670Z,69.42
2023-05-06T07:07:27.659Z,75.47
2023-05-06T07:08:27.694Z,67.34
2023-05-06T07:09:27.665Z,73.08
2023-05-06T07:10:27.638Z,70.77
2023-05-06T07:11:27.656Z,73.24
2023-05-06T07:12:27.622Z,68.64
2023-05-06T07:13:27.607Z,72.95
2023-05-06T07:14:27.590Z,73.29
2023-05-06T07:15:27.617Z,72.95
2023-05-06T07:16:27.664Z,68.76
2023-05-06T07:17:27.700Z,67.55
2023-05-06T07:18:27.804Z,73.52
2023-05-06T07:19:27.606Z,68.60
2023-05-06T07:20:27.672Z,69.84
2023-05-06T07:21:27.627Z,68.57
2023-05-06T07:22:27.602Z,64.89
2023-05-06T07:23:28.271Z,73.26
2023-05-06T07:24:27.572Z,74.07
2023-05-06T07:25:28.568Z,74.58
2023-05-06T07:26:27.550Z,73.66
2023-05-06T07:27:27.541Z,70.85
2023-05-06T07:28:27.564Z,67.91
2023-05-06T07:29:27.529Z,72.45
2023-05-06T07:30:27.515Z,74.03
2023-05-06T07:31:27.568Z,68.24
2023-05-06T07:32:27.565Z,68.26
2023-05-06T07:33:27.575Z,71.48
2023-05-06T07:34:27.499Z,72.75
2023-05-06T07:35:27.474Z,69.09
2023-05-06T07:36:27.467Z,72.33
2023-05-06T07:37:27.571Z,74.08
2023-05-06T07:38:27.488Z,72.49
2023-05-06T07:39:27.480Z,72.02
2023-05-06T07:40:27.446Z,71.42
2023-05-06T07:41:27.464Z,69.87
2023-05-06T07:42:28.515Z,73.43
2023-05-06T07:43:27.424Z,69.72
2023-05-06T07:44:27.447Z,71.26
2023-05-06T07:45:27.424Z,71.53
2023-05-06T07:46:27.513Z,73.50
2023-05-06T07:47:28.513Z,69.64
2023-05-06T07:48:27.467Z,65.89
2023-05-06T07:49:27.439Z,69.20
2023-05-06T07:50:27.372Z,72.82
2023-05-06T07:51:27.398Z,72.55
2023-05-06T07:52:27.423Z,72.28
2023-05-06T07:53:27.544Z,72.80
2023-05-06T07:54:27.362Z,72.60
2023-05-06T07:55:27.360Z,71.60
2023-05-06T07:56:27.438Z,72.06
2023-05-06T07:57:27.381Z,73.89
2023-05-06T07:58:27.333Z,74.13
2023-05-06T07:59:27.329Z,68.20
2023-05-06T08:00:28.073Z,72.07
2023-05-06T08:01:27.328Z,69.75
2023-05-06T08:02:27.463Z,70.27
2023-05-06T08:03:27.581Z,68.59
2023-05-06T08:04:27.367Z,72.13
2023-05-06T08:05:27.300Z,66.95
2023-05-06T08:06:27.294Z,68.52
2023-05-06T08:07:27.268Z,68.49
2023-05-06T08:08:27.288Z,74.59
2023-05-06T08:09:27.266Z,70.55
2023-05-06T08:10:27.246Z,70.24
2023-05-06T08:11:27.254Z,73.15
2023-05-06T08:12:27.238Z,70.13
2023-05-06T08:13:28.143Z,71.48
2023-05-06T08:14:27.258Z,71.17
2023-05-06T08:15:27.228Z,68.66
2023-05-06T08:16:27.716Z,69.82
2023-05-06T08:17:27.253Z,71.69
2023-05-06T08:18:27.262Z,69.60
2023-05-06T08:19:27.238Z,74.49
2023-05-06T08:20:27.247Z,69.18
2023-05-06T08:21:27.231Z,73.24
2023-05-06T08:22:27.177Z,72.47
2023-05-06T08:23:27.252Z,71.96
2023-05-06T08:24:27.181Z,71.75
2023-05-06T08:25:27.268Z,72.43
2023-05-06T08:26:27.178Z,72.69
2023-05-06T08:27:27.262Z,72.51
2023-05-06T08:28:27.712Z,71.13
2023-05-06T08:29:27.148Z,73.46
2023-05-06T08:30:27.133Z,71.42
2023-05-06T08:31:27.264Z,70.68
2023-05-06T08:32:27.168Z,73.08
2023-05-06T08:33:27.122Z,68.73
2023-05-06T08:34:27.124Z,69.12
2023-05-06T08:35:27.127Z,72.66
2023-05-06T08:36:27.116Z,71.09
2023-05-06T08:37:27.116Z,72.49
2023-05-06T08:38:27.100Z,71.87
2023-05-06T08:39:27.099Z,71.38
2023-05-06T08:40:27.065Z,72.13
2023-05-06T08:41:27.061Z,73.02
2023-05-06T08:42:27.060Z,71.60
2023-05-06T08:43:27.108Z,73.32
2023-05-06T08:44:27.050Z,71.96
2023-05-06T08:45:29.556Z,73.78
2023-05-06T08:46:27.044Z,70.25
2023-05-06T08:47:27.046Z,74.34
2023-05-06T08:48:27.029Z,72.94
2023-05-06T08:49:27.074Z,69.71
2023-05-06T08:50:27.055Z,71.35
2023-05-06T08:51:27.038Z,72.25
2023-05-06T08:52:27.109Z,72.60
2023-05-06T08:53:26.970Z,71.71
2023-05-06T08:54:26.976Z,68.99
2023-05-06T08:55:26.975Z,68.54
2023-05-06T08:56:27.013Z,74.59
2023-05-06T08:57:26.977Z,73.64
2023-05-06T08:58:26.966Z,70.04
2023-05-06T08:59:26.972Z,70.66
2023-05-06T09:00:26.923Z,72.78
2023-05-06T09:01:26.967Z,72.96
2023-05-06T09:02:26.992Z,71.76
2023-05-06T09:03:27.149Z,72.93
2023-05-06T09:04:26.945Z,71.34
2023-05-06T09:05:26.915Z,71.90
2023-05-06T09:06:26.899Z,73.46
2023-05-06T09:07:26.898Z,71.46
2023-05-06T09:08:26.889Z,72.51
2023-05-06T09:09:26.925Z,67.93
2023-05-06T09:10:26.874Z,69.93
2023-05-06T09:11:26.868Z,72.11
2023-05-06T09:12:26.895Z,73.32
2023-05-06T09:13:26.856Z,72.13
2023-05-06T09:14:26.851Z,72.37
2023-05-06T09:15:26.839Z,68.89
2023-05-06T09:16:26.899Z,73.29
2023-05-06T09:17:27.071Z,71.39
2023-05-06T09:18:26.867Z,73.04
2023-05-06T09:19:26.845Z,72.85
2023-05-06T09:20:26.847Z,70.96
2023-05-06T09:21:26.803Z,71.44
2023-05-06T09:22:26.857Z,72.04
2023-05-06T09:23:26.800Z,71.04
2023-05-06T09:24:26.804Z,71.74
2023-05-06T09:25:26.768Z,71.19
2023-05-06T09:26:26.797Z,71.57
2023-05-06T09:27:26.761Z,71.86
2023-05-06T09:28:26.806Z,72.26
2023-05-06T09:29:26.819Z,73.00
2023-05-06T09:30:26.764Z,73.99
2023-05-06T09:31:26.872Z,71.77
2023-05-06T09:32:26.856Z,71.45
2023-05-06T09:33:26.804Z,68.71
2023-05-06T09:34:26.733Z,69.24
2023-05-06T09:35:26.740Z,70.22
2023-05-06T09:36:26.778Z,68.04
2023-05-06T09:37:26.716Z,70.12
2023-05-06T09:38:26.714Z,72.86
2023-05-06T09:39:26.691Z,69.90
2023-05-06T09:40:26.738Z,69.37
2023-05-06T09:41:26.711Z,71.05
2023-05-06T09:42:26.713Z,73.10
2023-05-06T09:43:26.695Z,73.34
2023-05-06T09:44:26.672Z,72.11
2023-05-06T09:45:26.831Z,72.00
2023-05-06T09:46:26.754Z,70.77
2023-05-06T09:47:26.754Z,72.80
2023-05-06T09:48:26.674Z,69.78
2023-05-06T09:49:26.672Z,69.29
2023-05-06T09:50:26.668Z,71.22
2023-05-06T09:51:26.641Z,70.89
2023-05-06T09:52:26.655Z,68.98
2023-05-06T09:53:26.636Z,71.47
2023-05-06T09:54:26.639Z,71.69
2023-05-06T09:55:26.876Z,73.73
2023-05-06T09:56:26.643Z,73.09
2023-05-06T09:57:27.616Z,71.90
2023-05-06T09:58:26.672Z,71.48
2023-05-06T09:59:26.629Z,70.95
2023-05-06T10:00:26.607Z,71.98
2023-05-06T10:01:36.067Z,72.27
2023-05-06T10:02:28.707Z,68.56
2023-05-06T10:03:26.690Z,70.66
2023-05-06T10:04:26.807Z,66.39
2023-05-06T10:05:26.598Z,71.62
2023-05-06T10:06:26.583Z,70.56
2023-05-06T10:07:26.596Z,70.01
2023-05-06T10:08:26.566Z,72.80
2023-05-06T10:09:26.554Z,69.22
2023-05-06T10:10:26.553Z,72.90
2023-05-06T10:11:27.579Z,73.98
2023-05-06T10:12:26.581Z,71.86
2023-05-06T10:13:26.546Z,72.56
2023-05-06T10:14:26.577Z,72.82
2023-05-06T10:15:26.559Z,73.08
2023-05-06T10:16:26.595Z,68.43
2023-05-06T10:17:26.631Z,73.71
2023-05-06T10:18:26.517Z,73.44
2023-05-06T10:19:26.786Z,72.07
2023-05-06T10:20:26.577Z,72.48
2023-05-06T10:21:26.498Z,71.27
2023-05-06T10:22:26.547Z,68.30
2023-05-06T10:23:26.489Z,73.10
2023-05-06T10:24:26.456Z,69.88
2023-05-06T10:25:26.494Z,71.88
2023-05-06T10:26:26.473Z,67.29
2023-05-06T10:27:26.467Z,70.79
2023-05-06T10:28:30.953Z,70.81
2023-05-06T10:29:26.440Z,68.09
2023-05-06T10:30:26.730Z,69.45
2023-05-06T10:31:26.420Z,71.20
2023-05-06T10:32:26.470Z,69.73
2023-05-06T10:33:26.526Z,70.05
2023-05-06T10:34:26.414Z,71.55
2023-05-06T10:35:26.410Z,68.36
2023-05-06T10:36:26.390Z,70.99
2023-05-06T10:37:26.434Z,69.03
2023-05-06T10:38:26.362Z,70.47
2023-05-06T10:39:26.373Z,69.97
2023-05-06T10:40:26.364Z,70.91
2023-05-06T10:41:26.351Z,70.59
2023-05-06T10:42:26.333Z,69.81
2023-05-06T10:43:26.336Z,70.66
2023-05-06T10:44:26.336Z,66.40
2023-05-06T10:45:26.372Z,70.92
2023-05-06T10:46:26.383Z,72.73
2023-05-06T10:47:26.350Z,70.30
2023-05-06T10:48:26.330Z,68.15
2023-05-06T10:49:26.356Z,70.20
2023-05-06T10:50:26.317Z,73.85
2023-05-06T10:51:26.269Z,72.11
2023-05-06T10:52:26.272Z,69.77
2023-05-06T10:53:26.247Z,70.51
2023-05-06T10:54:26.277Z,70.52
2023-05-06T10:55:26.292Z,71.01
2023-05-06T10:56:26.246Z,70.57
2023-05-06T10:57:26.244Z,69.56
2023-05-06T10:58:26.210Z,72.26
2023-05-06T10:59:26.215Z,68.11
2023-05-06T11:00:26.209Z,66.52
2023-05-06T11:01:26.232Z,69.61
2023-05-06T11:02:26.371Z,69.59
2023-05-06T11:03:26.296Z,71.91
2023-05-06T11:04:26.172Z,71.23
2023-05-06T11:05:26.291Z,72.01
2023-05-06T11:06:26.185Z,66.77
2023-05-06T11:07:26.188Z,74.23
2023-05-06T11:08:26.190Z,69.75
2023-05-06T11:09:26.188Z,67.38
2023-05-06T11:10:26.177Z,71.85
2023-05-06T11:11:26.120Z,70.42
2023-05-06T11:12:26.113Z,70.22
2023-05-06T11:13:26.277Z,69.82
2023-05-06T11:14:26.150Z,68.29
2023-05-06T11:15:26.157Z,70.09
2023-05-06T11:16:26.173Z,67.86
2023-05-06T11:17:26.193Z,72.08
2023-05-06T11:18:26.079Z,68.25
2023-05-06T11:19:26.081Z,71.06
2023-05-06T11:20:26.074Z,72.66
2023-05-06T11:21:26.158Z,70.05
2023-05-06T11:22:26.086Z,71.79
2023-05-06T11:23:26.054Z,68.51
2023-05-06T11:24:26.053Z,70.22
2023-05-06T11:25:26.062Z,70.60
2023-05-06T11:26:26.043Z,69.11
2023-05-06T11:27:26.059Z,70.74
2023-05-06T11:28:26.126Z,72.11
2023-05-06T11:29:26.036Z,72.03
2023-05-06T11:30:26.056Z,71.05
2023-05-06T11:31:26.031Z,69.97
2023-05-06T11:32:26.050Z,74.49
2023-05-06T11:33:26.003Z,68.48
2023-05-06T11:34:25.969Z,71.98
2023-05-06T11:35:26.005Z,70.11
2023-05-06T11:36:25.947Z,73.89
2023-05-06T11:37:25.990Z,72.69
2023-05-06T11:38:25.920Z,70.25
2023-05-06T11:39:25.974Z,69.70
2023-05-06T11:40:25.930Z,71.55
2023-05-06T11:41:25.936Z,68.91
2023-05-06T11:42:25.942Z,71.94
2023-05-06T11:43:25.944Z,68.62
2023-05-06T11:44:25.888Z,70.45
2023-05-06T11:45:26.564Z,69.36
2023-05-06T11:46:25.921Z,71.94
2023-05-06T11:47:25.966Z,70.03
2023-05-06T11:48:26.008Z,71.19
2023-05-06T11:49:25.907Z,71.21
2023-05-06T11:50:25.859Z,72.74
2023-05-06T11:51:25.850Z,71.78
2023-05-06T11:52:25.881Z,71.61
2023-05-06T11:53:25.873Z,73.25
2023-05-06T11:54:25.810Z,66.65
2023-05-06T11:55:25.835Z,71.57
2023-05-06T11:56:25.830Z,69.86
2023-05-06T11:57:25.795Z,70.90
2023-05-06T11:58:25.791Z,74.33
2023-05-06T11:59:25.810Z,73.13
2023-05-06T12:00:26.768Z,72.92
2023-05-06T12:01:25.790Z,61.92
2023-05-06T12:02:25.856Z,73.13
2023-05-06T12:03:26.062Z,72.29
2023-05-06T12:04:25.836Z,71.45
2023-05-06T12:05:25.748Z,71.42
2023-05-06T12:06:25.747Z,67.89
2023-05-06T12:07:25.715Z,72.20
2023-05-06T12:08:28.012Z,69.34
2023-05-06T12:09:26.776Z,73.21
2023-05-06T12:10:25.711Z,73.18
2023-05-06T12:11:25.719Z,72.12
2023-05-06T12:12:25.691Z,72.01
2023-05-06T12:13:25.758Z,73.69
2023-05-06T12:14:25.676Z,71.81
2023-05-06T12:15:25.699Z,71.41
2023-05-06T12:16:25.822Z,70.71
2023-05-06T12:17:25.700Z,67.36
2023-05-06T12:18:25.673Z,74.10
2023-05-06T12:19:25.636Z,70.22
2023-05-06T12:20:25.638Z,69.71
2023-05-06T12:21:25.655Z,69.67
2023-05-06T12:22:25.621Z,72.08
2023-05-06T12:23:25.591Z,70.88
2023-05-06T12:24:25.639Z,71.82
2023-05-06T12:25:25.609Z,71.81
2023-05-06T12:26:25.607Z,71.65
2023-05-06T12:27:25.607Z,73.20
2023-05-06T12:28:25.584Z,73.56
2023-05-06T12:29:25.554Z,68.91
2023-05-06T12:30:25.560Z,69.39
2023-05-06T12:31:25.668Z,71.34
2023-05-06T12:32:25.630Z,72.27
2023-05-06T12:33:25.574Z,73.43
2023-05-06T12:34:25.525Z,70.69
2023-05-06T12:35:25.532Z,72.02
2023-05-06T12:36:25.505Z,69.89
2023-05-06T12:37:25.547Z,72.24
2023-05-06T12:38:25.493Z,71.87
2023-05-06T12:39:25.501Z,71.25
2023-05-06T12:40:25.494Z,72.32
2023-05-06T12:41:25.548Z,73.14
2023-05-06T12:42:25.485Z,72.90
2023-05-06T12:43:25.473Z,72.03
2023-05-06T12:44:25.527Z,70.13
2023-05-06T12:45:25.506Z,72.42
2023-05-06T12:46:25.506Z,72.66
2023-05-06T12:47:25.611Z,71.08
2023-05-06T12:48:25.440Z,71.36
2023-05-06T12:49:25.432Z,72.49
2023-05-06T12:50:25.427Z,71.69
2023-05-06T12:51:25.403Z,73.60
2023-05-06T12:52:25.455Z,72.45